createdAt,value
2022-08-28T00:01:19.382Z,4.60
2022-08-28T00:03:51.495Z,4.75
2022-08-28T00:06:23.591Z,4.28
2022-08-28T00:08:56.539Z,5.40
2022-08-28T00:11:28.525Z,4.57
2022-08-28T00:14:00.971Z,5.75
2022-08-28T00:16:33.714Z,5.47
2022-08-28T00:19:06.729Z,4.90
2022-08-28T00:21:38.779Z,4.75
2022-08-28T00:24:11.394Z,4.38
2022-08-28T00:27:03.146Z,4.65
2022-08-28T00:29:35.278Z,3.95
2022-08-28T00:32:08.961Z,4.43
2022-08-28T00:34:41.264Z,4.75
2022-08-28T00:37:13.314Z,4.25
2022-08-28T00:39:45.388Z,4.22
2022-08-28T00:42:17.470Z,3.70
2022-08-28T00:44:49.557Z,3.75
2022-08-28T00:47:26.428Z,3.70
2022-08-28T00:49:58.663Z,3.80
2022-08-28T00:52:30.865Z,4.32
2022-08-28T00:55:09.306Z,4.65
2022-08-28T00:57:49.430Z,3.75
2022-08-28T01:00:33.942Z,4.20
2022-08-28T01:03:06.997Z,4.60
2022-08-28T01:05:43.752Z,4.28
2022-08-28T01:08:16.896Z,4.18
2022-08-28T01:10:55.021Z,4.78
2022-08-28T01:13:28.352Z,5.15
2022-08-28T01:16:01.698Z,4.32
2022-08-28T01:18:34.953Z,3.78
2022-08-28T01:21:31.263Z,5.00
2022-08-28T01:24:08.740Z,4.93
2022-08-28T01:26:42.134Z,4.22
2022-08-28T01:29:14.802Z,5.03
2022-08-28T01:31:48.527Z,5.22
2022-08-28T01:34:21.302Z,3.85
2022-08-28T01:36:53.324Z,3.72
2022-08-28T01:39:28.189Z,3.70
2022-08-28T01:42:03.716Z,5.18
2022-08-28T01:44:35.670Z,4.90
2022-08-28T01:47:07.680Z,4.05
2022-08-28T01:49:39.661Z,4.68
2022-08-28T01:52:11.861Z,4.05
2022-08-28T01:54:43.868Z,3.65
2022-08-28T01:57:15.891Z,4.43
2022-08-28T01:59:50.907Z,3.78
2022-08-28T02:02:23.236Z,4.05
2022-08-28T02:04:55.169Z,4.10
2022-08-28T02:07:27.189Z,3.40
2022-08-28T02:10:02.922Z,3.70
2022-08-28T02:12:36.023Z,3.20
2022-08-28T02:15:08.739Z,3.28
2022-08-28T02:17:40.885Z,3.58
2022-08-28T02:20:13.093Z,3.75
2022-08-28T02:22:45.830Z,3.47
2022-08-28T02:25:18.864Z,3.88
2022-08-28T02:27:50.975Z,4.05
2022-08-28T02:30:23.689Z,3.78
2022-08-28T02:32:55.746Z,3.92
2022-08-28T02:35:28.001Z,3.28
2022-08-28T02:38:01.115Z,3.00
2022-08-28T02:40:33.310Z,3.40
2022-08-28T02:43:06.029Z,3.15
2022-08-28T02:45:38.066Z,3.15
2022-08-28T02:48:11.931Z,2.88
2022-08-28T02:50:49.051Z,3.10
2022-08-28T02:53:21.045Z,3.20
2022-08-28T02:55:53.099Z,2.53
2022-08-28T02:58:27.442Z,2.88
2022-08-28T03:01:01.919Z,2.83
2022-08-28T03:03:34.361Z,3.17
2022-08-28T03:06:07.689Z,2.40
2022-08-28T03:08:43.850Z,2.53
2022-08-28T03:11:15.915Z,3.25
2022-08-28T03:13:47.993Z,4.53
2022-08-28T03:16:20.437Z,2.97
2022-08-28T03:18:52.621Z,3.22
2022-08-28T03:21:24.734Z,3.20
2022-08-28T03:23:56.737Z,3.10
2022-08-28T03:26:29.778Z,3.50
2022-08-28T03:29:01.846Z,2.75
2022-08-28T03:31:35.950Z,3.03
2022-08-28T03:34:08.382Z,2.75
2022-08-28T03:36:40.361Z,2.90
2022-08-28T03:39:13.942Z,3.22
2022-08-28T03:41:45.969Z,3.70
2022-08-28T03:44:17.980Z,2.65
2022-08-28T03:46:49.931Z,3.53
2022-08-28T03:49:22.056Z,2.85
2022-08-28T03:51:55.102Z,2.65
2022-08-28T03:54:27.161Z,2.70
2022-08-28T03:56:59.210Z,3.47
2022-08-28T03:59:32.010Z,3.63
2022-08-28T04:02:05.761Z,2.67
2022-08-28T04:04:37.759Z,2.75
2022-08-28T04:07:09.750Z,3.42
2022-08-28T04:09:41.813Z,2.72
2022-08-28T04:12:15.351Z,2.95
2022-08-28T04:14:47.758Z,3.20
2022-08-28T04:17:20.049Z,3.13
2022-08-28T04:19:55.265Z,2.70
2022-08-28T04:22:27.571Z,3.50
2022-08-28T04:24:59.725Z,2.67
2022-08-28T04:27:31.946Z,2.55
2022-08-28T04:30:05.427Z,3.00
2022-08-28T04:32:39.759Z,2.88
2022-08-28T04:35:14.701Z,3.33
2022-08-28T04:37:46.672Z,4.18
2022-08-28T04:40:19.395Z,3.83
2022-08-28T04:42:51.840Z,3.17
2022-08-28T04:45:24.020Z,2.92
2022-08-28T04:47:55.973Z,2.47
2022-08-28T04:50:28.067Z,3.53
2022-08-28T04:53:00.273Z,2.85
2022-08-28T04:55:54.720Z,3.15
2022-08-28T04:58:24.556Z,2.53
2022-08-28T05:00:57.254Z,3.03
2022-08-28T05:03:29.282Z,3.03
2022-08-28T05:06:03.692Z,2.75
2022-08-28T05:08:35.693Z,2.33
2022-08-28T05:11:33.148Z,2.20
2022-08-28T05:14:13.912Z,3.25
2022-08-28T05:16:51.221Z,3.20
2022-08-28T05:19:24.764Z,3.30
2022-08-28T05:21:56.894Z,3.63
2022-08-28T05:24:28.957Z,2.10
2022-08-28T05:27:01.073Z,2.88
2022-08-28T05:29:33.447Z,3.28
2022-08-28T05:32:05.805Z,2.70
2022-08-28T05:34:37.777Z,2.70
2022-08-28T05:37:09.880Z,3.00
2022-08-28T05:39:41.897Z,3.05
2022-08-28T05:42:13.892Z,2.42
2022-08-28T05:44:45.898Z,2.90
2022-08-28T05:47:18.491Z,3.33
2022-08-28T05:49:53.672Z,3.00
2022-08-28T05:52:26.193Z,2.42
2022-08-28T05:54:58.662Z,2.65
2022-08-28T05:57:30.683Z,2.50
2022-08-28T06:00:04.968Z,2.60
2022-08-28T06:02:36.960Z,2.85
2022-08-28T06:05:12.994Z,2.38
2022-08-28T06:07:45.273Z,2.80
2022-08-28T06:10:17.717Z,3.13
2022-08-28T06:12:51.220Z,2.70
2022-08-28T06:15:23.195Z,3.75
2022-08-28T06:17:55.688Z,2.53
2022-08-28T06:20:27.636Z,2.78
2022-08-28T06:22:59.652Z,2.17
2022-08-28T06:25:31.613Z,2.80
2022-08-28T06:28:03.886Z,2.30
2022-08-28T06:30:37.303Z,2.60
2022-08-28T06:33:13.949Z,2.08
2022-08-28T06:35:49.930Z,3.25
2022-08-28T06:38:25.936Z,2.55
2022-08-28T06:40:58.734Z,2.90
2022-08-28T06:43:30.729Z,2.63
2022-08-28T06:46:03.481Z,3.55
2022-08-28T06:48:35.711Z,3.13
2022-08-28T06:51:11.383Z,3.10
2022-08-28T06:53:45.910Z,3.17
2022-08-28T06:56:26.349Z,2.83
2022-08-28T06:59:01.677Z,3.30
2022-08-28T07:01:37.017Z,3.08
2022-08-28T07:04:11.234Z,3.05
2022-08-28T07:06:54.215Z,2.95
2022-08-28T07:09:26.894Z,3.28
2022-08-28T07:11:58.880Z,3.60
2022-08-28T07:14:30.869Z,2.85
2022-08-28T07:17:02.869Z,2.83
2022-08-28T07:19:35.038Z,2.88
2022-08-28T07:22:07.052Z,2.70
2022-08-28T07:24:39.196Z,3.22
2022-08-28T07:27:14.661Z,2.90
2022-08-28T07:29:49.290Z,3.15
2022-08-28T07:32:23.960Z,3.53
2022-08-28T07:34:57.514Z,4.40
2022-08-28T07:37:30.201Z,4.10
2022-08-28T07:40:02.338Z,3.55
2022-08-28T07:42:52.729Z,3.30
2022-08-28T07:47:58.438Z,2.60
2022-08-28T07:50:30.442Z,3.20
2022-08-28T07:53:02.539Z,3.22
2022-08-28T07:55:34.889Z,2.90
2022-08-28T07:58:07.386Z,2.75
2022-08-28T08:00:39.405Z,3.45
2022-08-28T08:03:11.495Z,2.75
2022-08-28T08:05:56.042Z,2.85
2022-08-28T08:08:32.655Z,3.20
2022-08-28T08:11:16.589Z,3.28
2022-08-28T08:13:51.014Z,3.05
2022-08-28T08:16:26.154Z,3.50
2022-08-28T08:18:58.205Z,2.75
2022-08-28T08:21:30.793Z,2.60
2022-08-28T08:24:03.484Z,2.03
2022-08-28T08:26:36.422Z,2.25
2022-08-28T08:29:08.719Z,2.17
2022-08-28T08:31:41.149Z,2.50
2022-08-28T08:34:16.964Z,2.65
2022-08-28T08:36:49.036Z,1.88
2022-08-28T08:39:21.153Z,2.25
2022-08-28T08:41:59.919Z,2.53
2022-08-28T08:44:43.076Z,2.38
2022-08-28T08:47:39.349Z,2.35
2022-08-28T08:50:29.834Z,1.98
2022-08-28T08:53:32.253Z,2.53
2022-08-28T08:56:06.319Z,2.35
2022-08-28T08:58:42.322Z,2.38
2022-08-28T09:02:12.282Z,2.13
2022-08-28T09:04:49.824Z,2.22
2022-08-28T09:07:38.134Z,3.10
2022-08-28T09:10:12.600Z,2.05
2022-08-28T09:13:02.923Z,1.50
2022-08-28T09:15:42.765Z,2.17
2022-08-28T09:18:28.642Z,1.80
2022-08-28T09:21:00.779Z,2.63
2022-08-28T09:23:32.958Z,1.60
2022-08-28T09:26:12.892Z,1.75
2022-08-28T09:28:50.783Z,1.55
2022-08-28T09:31:41.205Z,1.92
2022-08-28T09:34:38.568Z,1.95
2022-08-28T09:37:27.002Z,1.98
2022-08-28T09:40:22.947Z,2.00
2022-08-28T09:43:26.763Z,1.55
2022-08-28T09:46:07.099Z,2.30
2022-08-28T09:48:43.773Z,2.55
2022-08-28T09:51:21.435Z,2.30
2022-08-28T09:53:56.325Z,2.38
2022-08-28T09:56:35.722Z,2.33
2022-08-28T09:59:12.896Z,2.00
2022-08-28T10:02:20.514Z,2.08
2022-08-28T10:05:08.825Z,1.95
2022-08-28T10:08:23.352Z,2.13
2022-08-28T10:11:01.408Z,2.47
2022-08-28T10:13:48.219Z,2.15
2022-08-28T10:16:33.770Z,2.40
2022-08-28T10:19:42.080Z,2.80
2022-08-28T10:22:51.355Z,2.33
2022-08-28T10:25:40.690Z,2.33
2022-08-28T10:28:34.990Z,2.10
2022-08-28T10:31:37.065Z,3.25
2022-08-28T10:34:46.930Z,2.92
2022-08-28T10:38:05.510Z,3.10
2022-08-28T10:41:10.871Z,2.78
2022-08-28T10:43:48.528Z,1.90
2022-08-28T10:46:35.502Z,2.20
2022-08-28T10:49:29.176Z,2.28
2022-08-28T10:52:26.585Z,2.88
2022-08-28T10:55:23.183Z,1.95
2022-08-28T10:58:23.894Z,2.53
2022-08-28T11:01:04.684Z,2.22
2022-08-28T11:03:49.409Z,2.55
2022-08-28T11:06:35.667Z,2.38
2022-08-28T11:09:26.853Z,2.80
2022-08-28T11:12:09.706Z,2.72
2022-08-28T11:14:47.887Z,3.00
2022-08-28T11:17:25.323Z,2.60
2022-08-28T11:20:59.820Z,2.63
2022-08-28T11:23:49.896Z,3.05
2022-08-28T11:26:37.676Z,2.30
2022-08-28T11:29:10.216Z,2.10
2022-08-28T11:31:45.045Z,2.20
2022-08-28T11:34:58.223Z,2.30
2022-08-28T11:37:52.258Z,2.47
2022-08-28T11:40:33.412Z,2.65
2022-08-28T11:43:16.240Z,3.03
2022-08-28T11:45:49.159Z,3.08
2022-08-28T11:48:36.358Z,2.92
2022-08-28T11:51:17.608Z,2.72
2022-08-28T11:54:21.839Z,2.38
2022-08-28T11:57:11.481Z,2.90
2022-08-28T11:59:58.387Z,2.42
2022-08-28T12:02:43.269Z,3.78
2022-08-28T12:05:15.345Z,3.38
2022-08-28T12:07:50.771Z,2.83
2022-08-28T12:10:22.677Z,2.78
2022-08-28T12:13:00.909Z,2.97
2022-08-28T12:15:33.586Z,3.17
2022-08-28T12:18:11.825Z,2.97
2022-08-28T12:21:07.121Z,2.50
2022-08-28T12:23:41.243Z,3.25
2022-08-28T12:26:27.374Z,2.55
2022-08-28T12:29:05.891Z,2.70
2022-08-28T12:32:11.647Z,3.20
2022-08-28T12:34:58.844Z,2.78
2022-08-28T12:37:52.239Z,2.78
2022-08-28T12:40:29.753Z,3.80
2022-08-28T12:43:08.435Z,3.17
2022-08-28T12:45:52.722Z,3.58
2022-08-28T12:48:34.483Z,3.72
2022-08-28T12:51:14.474Z,3.53
2022-08-28T12:53:53.492Z,4.28
2022-08-28T12:56:30.214Z,3.63
2022-08-28T12:59:27.773Z,3.65
2022-08-28T13:02:31.414Z,3.60
2022-08-28T13:05:10.378Z,3.75
2022-08-28T13:07:50.293Z,4.88
2022-08-28T13:10:30.866Z,4.95
2022-08-28T13:13:06.554Z,4.63
2022-08-28T13:15:53.519Z,3.97
2022-08-28T13:18:49.852Z,5.13
2022-08-28T13:21:32.844Z,4.75
2022-08-28T13:24:35.962Z,4.32
2022-08-28T13:27:20.866Z,4.05
2022-08-28T13:30:07.369Z,3.72
2022-08-28T13:32:40.795Z,4.25
2022-08-28T13:35:32.764Z,4.80
2022-08-28T13:38:12.777Z,4.32
2022-08-28T13:43:47.362Z,4.45
2022-08-28T13:46:20.132Z,4.43
2022-08-28T13:48:52.255Z,5.53
2022-08-28T13:51:26.649Z,4.97
2022-08-28T13:53:58.920Z,4.88
2022-08-28T13:56:32.733Z,4.30
2022-08-28T13:59:05.584Z,4.90
2022-08-28T14:01:57.644Z,4.20
2022-08-28T14:04:29.825Z,4.63
2022-08-28T14:07:01.898Z,4.22
2022-08-28T14:09:35.468Z,4.38
2022-08-28T14:12:10.064Z,3.83
2022-08-28T14:14:42.161Z,3.72
2022-08-28T14:17:14.266Z,3.88
2022-08-28T14:19:46.251Z,4.22
2022-08-28T14:22:18.244Z,3.88
2022-08-28T14:24:50.209Z,3.60
2022-08-28T14:27:22.206Z,3.80
2022-08-28T14:29:54.253Z,3.97
2022-08-28T14:32:26.289Z,4.10
2022-08-28T14:34:58.299Z,4.70
2022-08-28T14:37:30.304Z,3.88
2022-08-28T14:40:02.474Z,3.63
2022-08-28T14:42:34.829Z,4.05
2022-08-28T14:45:07.222Z,3.92
2022-08-28T14:47:39.437Z,4.47
2022-08-28T14:50:11.640Z,4.05
2022-08-28T14:52:43.651Z,3.65
2022-08-28T14:55:18.740Z,3.40
2022-08-28T14:57:51.363Z,3.65
2022-08-28T15:00:23.495Z,4.15
2022-08-28T15:02:59.857Z,3.85
2022-08-28T15:05:32.163Z,3.42
2022-08-28T15:08:14.900Z,3.72
2022-08-28T15:10:48.686Z,4.05
2022-08-28T15:13:21.921Z,3.47
2022-08-28T15:16:16.075Z,4.47
2022-08-28T15:18:48.742Z,3.53
2022-08-28T15:21:34.738Z,4.38
2022-08-28T15:24:07.710Z,4.20
2022-08-28T15:26:40.307Z,4.47
2022-08-28T15:29:12.680Z,4.65
2022-08-28T15:31:49.077Z,4.25
2022-08-28T15:34:25.209Z,4.55
2022-08-28T15:36:59.350Z,4.85
2022-08-28T15:39:49.702Z,4.20
2022-08-28T15:42:23.371Z,4.47
2022-08-28T15:44:55.397Z,4.15
2022-08-28T15:47:27.598Z,3.90
2022-08-28T15:49:59.627Z,4.28
2022-08-28T15:52:32.221Z,3.45
2022-08-28T15:55:06.334Z,3.90
2022-08-28T15:57:38.342Z,3.38
2022-08-28T16:00:11.952Z,3.53
2022-08-28T16:02:44.571Z,4.32
2022-08-28T16:05:17.406Z,3.47
2022-08-28T16:07:49.455Z,3.13
2022-08-28T16:10:22.479Z,3.28
2022-08-28T16:12:57.536Z,4.03
2022-08-28T16:15:30.161Z,3.78
2022-08-28T16:18:02.459Z,4.15
2022-08-28T16:20:35.199Z,3.88
2022-08-28T16:23:08.839Z,3.45
2022-08-28T16:25:41.655Z,3.08
2022-08-28T16:28:14.167Z,4.40
2022-08-28T16:30:46.784Z,3.88
2022-08-28T16:33:22.144Z,5.00
2022-08-28T16:35:56.412Z,4.05
2022-08-28T16:38:28.766Z,3.88
2022-08-28T16:41:00.786Z,3.00
2022-08-28T16:43:32.896Z,3.78
2022-08-28T16:46:10.293Z,4.28
2022-08-28T16:48:44.214Z,4.43
2022-08-28T16:51:17.213Z,3.88
2022-08-28T16:53:49.379Z,3.45
2022-08-28T16:56:23.663Z,3.35
2022-08-28T16:58:57.156Z,3.63
2022-08-28T17:01:29.558Z,4.03
2022-08-28T17:04:01.930Z,3.95
2022-08-28T17:06:35.540Z,3.63
2022-08-28T17:09:07.562Z,3.90
2022-08-28T17:11:39.810Z,5.20
2022-08-28T17:14:12.138Z,5.10
2022-08-28T17:16:44.541Z,3.95
2022-08-28T17:19:24.814Z,3.50
2022-08-28T17:27:22.648Z,3.60
2022-08-28T17:29:55.817Z,3.08
2022-08-28T17:32:28.705Z,3.25
2022-08-28T17:35:01.596Z,3.22
2022-08-28T17:37:33.617Z,4.43
2022-08-28T17:40:10.359Z,3.50
2022-08-28T17:42:45.725Z,3.38
2022-08-28T17:45:17.779Z,3.42
2022-08-28T17:47:52.518Z,3.17
2022-08-28T17:50:24.601Z,3.83
2022-08-28T17:52:56.626Z,3.22
2022-08-28T17:55:28.685Z,3.20
2022-08-28T17:58:00.669Z,3.33
2022-08-28T18:00:33.538Z,3.90
2022-08-28T18:03:05.804Z,3.17
2022-08-28T18:05:41.149Z,4.05
2022-08-28T18:31:46.126Z,3.25
2022-08-28T18:34:18.239Z,3.53
2022-08-28T18:36:50.269Z,4.15
2022-08-28T18:39:29.524Z,4.35
2022-08-28T18:42:02.208Z,4.05
2022-08-28T18:44:34.342Z,4.07
2022-08-28T18:47:06.321Z,3.92
2022-08-28T18:49:38.399Z,5.55
2022-08-28T18:52:10.374Z,4.75
2022-08-28T18:54:42.505Z,4.15
2022-08-28T18:57:18.627Z,4.28
2022-08-28T18:59:50.920Z,4.47
2022-08-28T19:02:23.007Z,3.78
2022-08-28T19:04:55.138Z,3.92
2022-08-28T19:07:27.593Z,4.32
2022-08-28T19:09:59.734Z,5.10
2022-08-28T19:12:31.785Z,8.93
2022-08-28T19:15:07.411Z,5.20
2022-08-28T19:17:40.708Z,4.30
2022-08-28T19:20:17.301Z,4.78
2022-08-28T19:22:50.013Z,4.18
2022-08-28T19:25:28.440Z,3.97
2022-08-28T19:28:02.015Z,3.67
2022-08-28T19:30:35.621Z,4.28
2022-08-28T19:33:07.568Z,4.28
2022-08-28T19:35:39.748Z,4.30
2022-08-28T19:38:11.806Z,3.63
2022-08-28T19:40:45.644Z,4.65
2022-08-28T19:43:17.885Z,4.30
2022-08-28T19:45:49.949Z,4.45
2022-08-28T19:48:22.006Z,4.55
2022-08-28T19:51:06.692Z,5.25
2022-08-28T19:53:54.630Z,4.43
2022-08-28T19:56:33.888Z,4.15
2022-08-28T19:59:07.687Z,3.85
2022-08-28T20:01:43.644Z,4.75
2022-08-28T20:04:17.856Z,4.35
2022-08-28T20:06:49.931Z,3.78
2022-08-28T20:09:22.097Z,3.85
2022-08-28T20:11:54.888Z,3.55
2022-08-28T20:14:27.745Z,4.00
2022-08-28T20:17:00.596Z,3.60
2022-08-28T20:19:33.516Z,2.92
2022-08-28T20:22:06.000Z,3.67
2022-08-28T20:24:39.555Z,3.10
2022-08-28T20:27:11.605Z,3.50
2022-08-28T20:29:43.774Z,3.17
2022-08-28T20:32:15.798Z,3.70
2022-08-28T20:34:47.961Z,3.95
2022-08-28T20:37:20.162Z,3.25
2022-08-28T20:39:57.844Z,3.15
2022-08-28T20:42:31.801Z,3.50
2022-08-28T20:45:04.992Z,3.80
2022-08-28T20:47:37.159Z,4.88
2022-08-28T20:50:09.935Z,3.45
2022-08-28T20:52:42.426Z,3.50
2022-08-28T20:55:14.978Z,4.10
2022-08-28T20:57:46.989Z,3.13
2022-08-28T21:00:18.948Z,3.05
2022-08-28T21:02:50.962Z,3.10
2022-08-28T21:05:23.159Z,3.55
2022-08-28T21:07:55.163Z,3.13
2022-08-28T21:10:27.150Z,3.53
2022-08-28T21:12:59.323Z,3.28
2022-08-28T21:15:31.730Z,3.55
2022-08-28T21:18:04.363Z,5.00
2022-08-28T21:20:37.286Z,3.85
2022-08-28T21:23:09.290Z,3.47
2022-08-28T21:25:42.238Z,3.40
2022-08-28T21:28:14.606Z,2.72
2022-08-28T21:30:46.857Z,3.45
2022-08-28T21:33:18.872Z,3.83
2022-08-28T21:35:50.836Z,3.45
2022-08-28T21:38:22.814Z,3.05
2022-08-28T21:40:54.796Z,3.55
2022-08-28T21:43:27.010Z,3.08
2022-08-28T21:46:05.694Z,3.15
2022-08-28T21:48:38.079Z,3.30
2022-08-28T21:51:14.817Z,3.47
2022-08-28T21:53:47.486Z,3.67
2022-08-28T21:56:24.255Z,4.05
2022-08-28T21:58:57.546Z,3.22
2022-08-28T22:01:29.583Z,2.85
2022-08-28T22:04:01.863Z,4.03
2022-08-28T22:06:34.002Z,3.47
2022-08-28T22:09:07.409Z,3.30
2022-08-28T22:11:39.389Z,3.78
2022-08-28T22:14:11.379Z,3.65
2022-08-28T22:16:44.830Z,3.15
2022-08-28T22:19:16.869Z,3.13
2022-08-28T22:22:08.226Z,3.05
2022-08-28T22:24:40.281Z,2.72
2022-08-28T22:27:13.587Z,3.20
2022-08-28T22:29:45.712Z,3.22
2022-08-28T22:32:18.353Z,3.85
2022-08-28T22:34:50.473Z,3.28
2022-08-28T22:37:23.366Z,3.22
2022-08-28T22:39:55.517Z,3.15
2022-08-28T22:42:27.638Z,3.92
2022-08-28T22:44:59.825Z,3.55
2022-08-28T22:47:32.180Z,3.35
2022-08-28T22:50:04.899Z,2.85
2022-08-28T22:52:38.079Z,3.15
2022-08-28T22:55:12.812Z,3.45
2022-08-28T22:57:45.218Z,3.40
2022-08-28T23:00:24.729Z,3.03
2022-08-28T23:02:57.804Z,3.07
2022-08-28T23:05:30.467Z,2.85
2022-08-28T23:08:02.601Z,3.00
2022-08-28T23:10:55.596Z,3.28
2022-08-28T23:13:27.131Z,3.50
2022-08-28T23:16:00.634Z,3.70
2022-08-28T23:18:46.375Z,3.03
2022-08-28T23:21:26.612Z,2.92
2022-08-28T23:23:58.723Z,3.25
2022-08-28T23:26:30.800Z,4.00
2022-08-28T23:29:02.993Z,2.85
2022-08-28T23:31:35.644Z,2.88
2022-08-28T23:34:08.052Z,3.13
2022-08-28T23:36:42.947Z,2.85
2022-08-28T23:39:15.691Z,3.47
2022-08-28T23:41:47.957Z,3.10
2022-08-28T23:44:20.985Z,2.83
2022-08-28T23:46:52.948Z,2.78
2022-08-28T23:49:27.102Z,3.03
2022-08-28T23:51:59.195Z,3.53
2022-08-28T23:54:31.889Z,3.58
2022-08-28T23:57:05.331Z,3.30
2022-08-28T23:59:37.461Z,2.78
